Terminal Aerodrome Forecast
Issued by NWS

Home | Current Version | Previous Version | Text Only | Print | Product List | Glossary On
Versions: 1 2 3 4 5 6 7 8 9 10 11 12 13 14 15 16
000
FTUS45 KGJT 282345
TAFCNY
TAF
KCNY 282345Z 2900/2924 06008KT P6SM FEW070 SCT090 BKN150
      TEMPO 2900/2902 VRB10KT -SHRA SCT030 BKN050
     FM290200 14006KT P6SM VCSH BKN090
     FM290400 18004KT P6SM VCSH BKN090
     FM291900 34008KT P6SM SCT100=

USA.gov is the U.S. government's official web portal to all federal, state and local government web resources and services.